Flight Track Log - Related Links

Times and Time Zones

All times are in EDT time to prevent confusion due to time zone crossing. See the RPA3396 flight status page for this flight to view local times or setup timezone preferences in your user account.

Time Position Orientation Groundspeed Altitude Reporting Facility
EDT Latitude Longitude Course Direction KTS MPH feet Rate Location/Type
Mon 04:54:28 PM 38.8000 -77.0333 38° Northeast 179 206 2,100  Level Potomac TRACON
Mon 04:55:28 PM 38.7500 -77.0000 153° Southeast 247 284 5,000 2,550 Climbing Potomac TRACON
Mon 04:56:00 PM 39.0161 -76.5679 57° Northeast  Level FlightAware Approximate
Mon 04:56:28 PM 38.7833 -76.9000 67° East 311 358 7,200  Level Potomac TRACON
Mon 04:56:58 PM 38.7900 -76.8619 77° East 311 358 8,300 2,333 Climbing Washington Center
Mon 04:57:00 PM 39.0602 -76.4496 63° Northeast  Level FlightAware Approximate
Mon 04:57:58 PM 38.8553 -76.7831 43° Northeast 299 344 10,700  Level Washington Center
Mon 04:58:00 PM 39.1091 -76.3343 61° Northeast  Level FlightAware Approximate
Mon 04:59:00 PM 39.1466 -76.2201 38° Northeast  Level FlightAware Approximate
Mon 04:59:00 PM 38.9399 -76.7224 90° East  Level Estimated
Mon 05:00:00 PM 38.9408 -76.5525 90° East 342 394 15,100  Level Washington Center
Mon 05:00:58 PM 38.9833 -76.4356 65° Northeast 353 406 17,500 2,288 Climbing Washington Center
Mon 05:01:58 PM 39.0278 -76.3158 64° Northeast 363 418 19,600 1,918 Climbing Washington Center
Mon 05:03:00 PM 39.0722 -76.1906 65° Northeast 368 423 21,400 1,180 Climbing Washington Center
Mon 05:04:00 PM 39.1292 -76.0544 62° Northeast 385 443 22,000 305 Climbing Washington Center
Mon 05:04:58 PM 39.1756 -75.9261 65° Northeast 385 443 22,000  Level Washington Center
Mon 05:05:59 PM 39.2403 -75.8167 53° Northeast 385 443 22,000  Level Washington Center
Mon 05:07:00 PM 39.3175 -75.7178 45° Northeast 385 443 22,000 50 Level Washington Center
Mon 05:07:59 PM 39.3947 -75.6183 45° Northeast 385 443 22,100 857 Climbing Washington Center
Mon 05:08:59 PM 39.4739 -75.5189 44° Northeast 385 443 23,700 942 Climbing Washington Center
Mon 05:10:00 PM 39.5531 -75.4139 46° Northeast 385 443 24,000 905 Climbing Washington Center
Mon 05:12:18 PM 39.7311 -75.1761 46° Northeast 410 472 26,700 905 Climbing New York Center
Mon 05:13:19 PM 39.8236 -75.0414 48° Northeast 430 495 27,000 148 Climbing New York Center
Mon 05:14:20 PM 39.9225 -74.9556 34° Northeast 433 498 27,000  Level New York Center
Mon 05:15:18 PM 40.0175 -74.8608 37° Northeast 433 498 27,000  Level New York Center
Mon 05:16:18 PM 40.1067 -74.7575 42° Northeast 421 484 27,000  Level New York Center
Mon 05:17:19 PM 40.1917 -74.6456 45° Northeast 426 490 27,000  Level New York Center
Mon 05:18:18 PM 40.2808 -74.5281 45° Northeast 437 503 27,000  Level New York Center
Mon 05:19:18 PM 40.3678 -74.4158 45° Northeast 437 503 27,000 -347 Level New York Center
Mon 05:20:19 PM 40.4547 -74.3031 45° Northeast 437 503 26,300 -857 Descending New York Center
Mon 05:21:17 PM 40.5369 -74.1956 45° Northeast 427 491 25,300 -966 Descending New York Center
Mon 05:22:17 PM 40.6194 -74.0847 46° Northeast 422 486 24,400 -645 Descending New York Center
Mon 05:23:18 PM 40.6994 -73.9764 46° Northeast 417 480 24,000 -119 Descending New York Center
Mon 05:25:38 PM 40.9008 -73.7333 42° Northeast 407 468 24,000  Level Boston Center
Mon 05:26:38 PM 40.9833 -73.6250 45° Northeast 407 468 24,000 -400 Level Boston Center
Mon 05:27:38 PM 41.0739 -73.5386 36° Northeast 402 463 23,200 -650 Descending Boston Center
Mon 05:28:38 PM 41.1764 -73.4742 25° Northeast 402 463 22,700 -800 Descending Boston Center
Mon 05:29:38 PM 41.2769 -73.4122 25° Northeast 397 457 21,600 -1,050 Descending Boston Center
Mon 05:30:38 PM 41.3775 -73.3669 19° North 392 451 20,600 -1,000 Descending Boston Center
Mon 05:31:38 PM 41.4794 -73.3878 351° North 358 412 19,600 -950 Descending Boston Center
Mon 05:32:38 PM 41.5564 -73.4083 349° North 358 412 18,700 -900 Descending Boston Center
Mon 05:33:38 PM 41.6769 -73.4322 352° North 357 411 17,800 -650 Descending Boston Center
Mon 05:34:38 PM 41.7728 -73.4561 349° North 357 411 17,400 -475 Descending Boston Center
Mon 05:35:19 PM 41.8392 -73.4711 350° North 357 411 17,000 -500 Descending Boston Center
Mon 05:35:38 PM 41.8725 -73.4772 352° North 357 411 16,900 -684 Descending Boston Center
Mon 05:36:38 PM 41.9600 -73.4925 353° North 348 400 16,100 -2,000 Descending Boston Center
Mon 05:37:32 PM 42.0578 -73.5167 350° North 354 407 13,100 -2,917 Descending Boston Center
Mon 05:37:50 PM 42.0658 -73.5194 346° North 354 407 12,600 -2,066 Descending Boston Center
Mon 05:38:33 PM 42.1511 -73.5406 350° North 348 400 11,000 -1,600 Descending Boston Center
Mon 05:38:50 PM 42.1678 -73.5464 345° North 354 407 11,000 -197 Level Boston Center
Mon 05:39:34 PM 42.2364 -73.5617 351° North 293 337 10,800 -500 Descending Boston Center
Mon 05:39:50 PM 42.2511 -73.5678 343° North 329 379 10,500 -1,400 Descending Boston Center
Mon 05:40:34 PM 42.3175 -73.5828 351° North 297 342 9,400 -1,314 Descending Boston Center
Mon 05:41:35 PM 42.3986 -73.6042 349° North 304 350 8,200 -1,190 Descending Boston Center
Mon 05:42:35 PM 42.4839 -73.6281 348° North 306 352 7,000 -1,339 Descending Boston Center
Mon 05:43:36 PM 42.5733 -73.6411 354° North 307 353 5,500 -1,426 Descending Boston Center
Mon 05:44:37 PM 42.6586 -73.6542 354° North 298 343 4,100 -1,240 Descending Boston Center
Mon 05:45:37 PM 42.7378 -73.6669 353° North 292 336 3,000 -545 Descending Boston Center
Mon 05:46:38 PM 42.8125 -73.6825 351° North 276 318 3,000 -148 Level Boston Center
Mon 05:47:39 PM 42.8792 -73.6953 352° North 195 224 2,700 -496 Descending Boston Center
Mon 05:48:39 PM 42.9036 -73.7497 302° West 189 217 2,000 -700 Descending Boston Center

Login

Don't have an account? Register now (free) for customized features, flight alerts, and more!